createdAt,value
2022-10-13T00:02:17.306Z,36.25
2022-10-13T00:05:21.939Z,30.20
2022-10-13T00:08:27.106Z,35.83
2022-10-13T00:11:32.334Z,39.53
2022-10-13T00:14:36.348Z,48.97
2022-10-13T00:17:40.614Z,60.28
2022-10-13T00:20:46.744Z,60.75
2022-10-13T00:23:51.738Z,60.42
2022-10-13T00:26:55.547Z,53.90
2022-10-13T00:29:59.680Z,56.08
2022-10-13T00:33:03.365Z,52.30
2022-10-13T00:36:07.637Z,55.38
2022-10-13T00:39:11.247Z,53.80
2022-10-13T00:42:15.449Z,48.53
2022-10-13T00:45:19.256Z,39.40
2022-10-13T00:48:30.488Z,43.83
2022-10-13T00:51:38.945Z,47.22
2022-10-13T00:54:43.005Z,45.60
2022-10-13T00:57:49.251Z,42.77
2022-10-13T01:00:54.528Z,43.03
2022-10-13T01:03:58.261Z,37.03
2022-10-13T01:07:03.612Z,37.92
2022-10-13T01:10:07.941Z,39.55
2022-10-13T01:13:21.863Z,42.87
2022-10-13T01:16:46.846Z,47.63
2022-10-13T01:19:56.938Z,41.95
2022-10-13T01:23:21.557Z,33.45
2022-10-13T01:26:25.610Z,39.30
2022-10-13T01:29:47.510Z,43.97
2022-10-13T01:32:54.110Z,37.03
2022-10-13T01:36:20.672Z,40.85
2022-10-13T01:39:26.852Z,40.05
2022-10-13T01:42:43.835Z,33.80
2022-10-13T01:45:56.529Z,30.10
2022-10-13T01:49:04.615Z,33.33
2022-10-13T01:52:16.237Z,40.35
2022-10-13T01:55:19.649Z,36.38
2022-10-13T01:58:24.433Z,34.03
2022-10-13T02:01:39.705Z,42.57
2022-10-13T02:05:00.898Z,39.65
2022-10-13T02:08:33.605Z,34.63
2022-10-13T02:11:40.043Z,34.05
2022-10-13T02:14:45.073Z,30.63
2022-10-13T02:17:48.425Z,33.20
2022-10-13T02:20:52.858Z,37.55
2022-10-13T02:23:56.647Z,33.17
2022-10-13T02:27:00.524Z,33.88
2022-10-13T02:30:03.859Z,30.42
2022-10-13T02:33:07.973Z,35.80
2022-10-13T02:36:11.569Z,34.45
2022-10-13T02:39:15.692Z,32.65
2022-10-13T02:42:19.314Z,41.25
2022-10-13T02:45:23.727Z,37.28
2022-10-13T02:48:30.884Z,42.03
2022-10-13T02:51:38.927Z,38.17
2022-10-13T02:54:44.008Z,42.33
2022-10-13T02:57:47.709Z,63.67
2022-10-13T03:00:50.861Z,49.90
2022-10-13T03:03:54.542Z,38.43
2022-10-13T03:06:58.602Z,29.77
2022-10-13T03:10:02.684Z,30.17
2022-10-13T03:13:06.726Z,24.48
2022-10-13T03:16:10.010Z,22.45
2022-10-13T03:19:12.999Z,25.30
2022-10-13T03:22:16.680Z,15.20
2022-10-13T03:25:21.289Z,19.45
2022-10-13T03:28:28.252Z,16.58
2022-10-13T03:31:32.111Z,14.63
2022-10-13T03:34:38.921Z,17.77
2022-10-13T03:37:42.016Z,15.18
2022-10-13T03:40:45.036Z,13.90
2022-10-13T03:43:48.031Z,14.60
2022-10-13T03:46:51.156Z,19.58
2022-10-13T03:49:56.056Z,12.80
2022-10-13T03:52:59.817Z,9.05
2022-10-13T03:56:06.236Z,7.82
2022-10-13T03:59:17.614Z,7.55
2022-10-13T04:02:21.687Z,8.85
2022-10-13T04:05:26.870Z,10.90
2022-10-13T04:08:31.858Z,9.10
2022-10-13T04:11:35.156Z,7.05
2022-10-13T04:14:38.482Z,7.43
2022-10-13T04:17:44.247Z,9.95
2022-10-13T04:20:47.290Z,6.53
2022-10-13T04:23:50.975Z,8.02
2022-10-13T04:26:54.281Z,9.43
2022-10-13T04:29:57.655Z,7.03
2022-10-13T04:33:01.401Z,7.03
2022-10-13T04:36:07.223Z,7.63
2022-10-13T04:39:10.859Z,10.32
2022-10-13T04:42:13.919Z,7.18
2022-10-13T04:45:17.796Z,6.13
2022-10-13T04:48:25.405Z,4.05
2022-10-13T04:51:29.061Z,5.53
2022-10-13T04:54:32.464Z,14.63
2022-10-13T04:57:36.405Z,14.88
2022-10-13T05:00:40.101Z,9.48
2022-10-13T05:03:44.012Z,12.10
2022-10-13T05:07:15.862Z,18.13
2022-10-13T05:10:11.089Z,11.77
2022-10-13T05:13:14.753Z,33.00
2022-10-13T05:16:19.451Z,8.95
2022-10-13T05:19:23.243Z,7.72
2022-10-13T05:22:29.092Z,7.13
2022-10-13T05:25:33.963Z,4.13
2022-10-13T05:28:38.159Z,5.85
2022-10-13T05:31:41.810Z,7.18
2022-10-13T05:34:44.936Z,11.85
2022-10-13T05:37:48.605Z,17.07
2022-10-13T05:40:51.630Z,9.93
2022-10-13T05:43:57.906Z,12.93
2022-10-13T05:47:06.510Z,6.43
2022-10-13T05:50:11.302Z,8.85
2022-10-13T05:53:16.309Z,14.40
2022-10-13T05:56:24.454Z,17.00
2022-10-13T05:59:29.792Z,9.55
2022-10-13T06:02:44.833Z,6.65
2022-10-13T06:05:50.965Z,4.07
2022-10-13T06:08:54.610Z,3.60
2022-10-13T06:11:57.595Z,7.45
2022-10-13T06:15:00.491Z,5.75
2022-10-13T06:18:03.387Z,6.97
2022-10-13T06:21:06.623Z,6.93
2022-10-13T06:24:10.532Z,6.47
2022-10-13T06:27:13.617Z,5.05
2022-10-13T06:30:16.609Z,4.47
2022-10-13T06:33:19.894Z,5.95
2022-10-13T06:36:22.804Z,6.05
2022-10-13T06:39:27.133Z,9.40
2022-10-13T06:42:32.321Z,11.70
2022-10-13T06:45:45.647Z,14.50
2022-10-13T06:48:52.731Z,10.55
2022-10-13T06:51:57.988Z,11.90
2022-10-13T06:55:01.610Z,11.93
2022-10-13T06:58:05.590Z,18.02
2022-10-13T07:01:09.688Z,14.15
2022-10-13T07:04:14.137Z,21.15
2022-10-13T07:07:17.517Z,16.10
2022-10-13T07:10:22.826Z,18.77
2022-10-13T07:13:26.609Z,10.98
2022-10-13T07:16:30.484Z,7.90
2022-10-13T07:19:34.503Z,10.50
2022-10-13T07:22:37.699Z,5.95
2022-10-13T07:25:41.089Z,9.00
2022-10-13T07:28:45.849Z,9.15
2022-10-13T07:31:49.044Z,4.40
2022-10-13T07:34:55.006Z,3.55
2022-10-13T07:37:59.306Z,2.55
2022-10-13T07:41:03.753Z,2.30
2022-10-13T07:44:08.040Z,2.28
2022-10-13T07:47:11.442Z,5.22
2022-10-13T07:50:14.688Z,2.65
2022-10-13T07:53:18.458Z,2.90
2022-10-13T07:56:22.275Z,2.10
2022-10-13T07:59:25.235Z,7.43
2022-10-13T08:02:28.448Z,3.55
2022-10-13T08:05:31.705Z,6.22
2022-10-13T08:08:39.156Z,4.78
2022-10-13T08:11:42.857Z,6.73
2022-10-13T08:14:46.423Z,4.50
2022-10-13T08:17:51.102Z,10.40
2022-10-13T08:21:10.743Z,8.38
2022-10-13T08:24:19.895Z,7.18
2022-10-13T08:27:32.743Z,7.77
2022-10-13T08:30:48.091Z,15.02
2022-10-13T08:33:52.730Z,22.88
2022-10-13T08:36:56.958Z,21.52
2022-10-13T08:40:00.944Z,16.77
2022-10-13T08:43:13.522Z,11.30
2022-10-13T08:46:22.076Z,16.13
2022-10-13T08:49:25.054Z,14.43
2022-10-13T08:52:30.560Z,15.30
2022-10-13T08:55:42.389Z,14.38
2022-10-13T08:58:45.538Z,22.93
2022-10-13T09:01:52.801Z,22.58
2022-10-13T09:05:00.232Z,20.55
2022-10-13T09:08:06.054Z,18.77
2022-10-13T09:11:12.115Z,21.10
2022-10-13T09:14:41.794Z,20.43
2022-10-13T09:17:46.038Z,17.65
2022-10-13T09:20:49.237Z,23.40
2022-10-13T09:23:55.392Z,26.52
2022-10-13T09:27:14.214Z,18.25
2022-10-13T09:30:28.542Z,16.43
2022-10-13T09:33:37.035Z,19.35
2022-10-13T09:36:40.960Z,26.15
2022-10-13T09:39:43.961Z,18.77
2022-10-13T09:42:53.592Z,14.30
2022-10-13T09:45:58.637Z,18.43
2022-10-13T09:49:22.810Z,16.85
2022-10-13T09:52:26.409Z,24.55
2022-10-13T09:55:33.025Z,21.23
2022-10-13T09:58:40.874Z,22.98
2022-10-13T10:01:48.205Z,28.20
2022-10-13T10:04:53.304Z,27.90
2022-10-13T10:08:02.533Z,29.80
2022-10-13T10:11:13.077Z,17.77
2022-10-13T10:14:26.555Z,20.60
2022-10-13T10:17:50.634Z,19.47
2022-10-13T10:21:30.377Z,19.02
2022-10-13T10:24:52.035Z,19.42
2022-10-13T10:28:07.385Z,15.40
2022-10-13T10:31:22.836Z,15.80
2022-10-13T10:34:32.656Z,19.20
2022-10-13T10:37:51.405Z,23.35
2022-10-13T10:41:00.816Z,19.60
2022-10-13T10:44:17.998Z,18.13
2022-10-13T10:47:27.004Z,23.60
2022-10-13T10:50:33.817Z,15.73
2022-10-13T10:53:53.555Z,27.35
2022-10-13T10:57:02.930Z,29.75
2022-10-13T11:00:22.252Z,30.80
2022-10-13T11:03:53.137Z,33.33
2022-10-13T11:06:56.440Z,43.13
2022-10-13T11:10:19.112Z,37.00
2022-10-13T11:13:22.741Z,48.58
2022-10-13T11:16:28.911Z,53.75
2022-10-13T11:19:40.516Z,73.07
2022-10-13T11:23:03.359Z,61.40
2022-10-13T11:26:32.117Z,67.30
2022-10-13T11:29:47.696Z,32.95
2022-10-13T11:32:57.184Z,37.40
2022-10-13T11:36:32.397Z,45.05
2022-10-13T11:39:52.871Z,94.40
2022-10-13T11:43:13.971Z,102.18
2022-10-13T11:46:20.108Z,108.95
2022-10-13T11:49:48.612Z,107.93
2022-10-13T11:53:18.499Z,106.45
2022-10-13T11:56:39.681Z,97.30
2022-10-13T11:59:48.127Z,64.93
2022-10-13T12:02:54.021Z,54.45
2022-10-13T12:06:05.643Z,61.67
2022-10-13T12:09:20.855Z,57.47
2022-10-13T12:12:25.612Z,59.93
2022-10-13T12:15:35.996Z,56.67
2022-10-13T12:18:41.851Z,46.03
2022-10-13T12:21:57.590Z,34.13
2022-10-13T12:25:07.376Z,44.03
2022-10-13T12:28:19.709Z,46.87
2022-10-13T12:31:30.376Z,39.85
2022-10-13T12:34:36.465Z,42.15
2022-10-13T12:37:41.209Z,44.53
2022-10-13T12:40:45.301Z,37.85
2022-10-13T12:43:49.376Z,78.77
2022-10-13T12:47:00.843Z,77.18
2022-10-13T12:50:37.507Z,72.82
2022-10-13T12:53:41.331Z,72.55
2022-10-13T12:56:46.816Z,86.32
2022-10-13T12:59:50.292Z,72.10
2022-10-13T13:02:55.990Z,57.50
2022-10-13T13:06:14.216Z,69.15
2022-10-13T13:09:26.506Z,45.97
2022-10-13T13:12:31.829Z,54.00
2022-10-13T13:15:38.249Z,55.60
2022-10-13T13:18:43.842Z,47.55
2022-10-13T13:21:47.610Z,36.58
2022-10-13T13:24:52.503Z,40.10
2022-10-13T13:27:56.316Z,45.00
2022-10-13T13:31:00.351Z,46.43
2022-10-13T13:34:03.779Z,51.22
2022-10-13T13:37:07.125Z,51.28
2022-10-13T13:40:26.704Z,53.80
2022-10-13T13:43:29.723Z,45.40
2022-10-13T13:46:33.509Z,38.57
2022-10-13T13:49:36.999Z,46.72
2022-10-13T13:52:41.278Z,43.47
2022-10-13T13:55:47.190Z,35.88
2022-10-13T13:58:54.573Z,14.93
2022-10-13T14:01:57.723Z,5.30
2022-10-13T14:05:02.871Z,19.02
2022-10-13T14:08:07.225Z,7.07
2022-10-13T14:11:11.785Z,18.38
2022-10-13T14:14:14.751Z,5.32
2022-10-13T14:17:19.094Z,5.63
2022-10-13T14:20:22.958Z,9.25
2022-10-13T14:23:26.718Z,8.60
2022-10-13T14:26:30.065Z,22.38
2022-10-13T14:29:33.416Z,19.77
2022-10-13T14:32:39.331Z,20.67
2022-10-13T14:35:42.622Z,29.85
2022-10-13T14:38:45.848Z,37.63
2022-10-13T14:41:49.256Z,34.28
2022-10-13T14:44:52.231Z,42.80
2022-10-13T14:47:56.192Z,40.03
2022-10-13T14:51:00.762Z,46.72
2022-10-13T14:54:05.112Z,50.75
2022-10-13T14:57:08.778Z,46.38
2022-10-13T15:00:12.706Z,49.95
2022-10-13T15:03:15.795Z,38.20
2022-10-13T15:06:25.262Z,43.67
2022-10-13T15:09:44.831Z,48.83
2022-10-13T15:12:53.022Z,46.75
2022-10-13T15:15:57.731Z,57.08
2022-10-13T15:19:02.509Z,50.40
2022-10-13T15:22:05.480Z,50.38
2022-10-13T15:25:11.225Z,53.60
2022-10-13T15:28:14.915Z,60.15
2022-10-13T15:31:19.967Z,78.75
2022-10-13T15:34:23.582Z,75.10
2022-10-13T15:37:26.888Z,57.13
2022-10-13T15:40:34.017Z,56.85
2022-10-13T15:43:37.118Z,58.40
2022-10-13T15:46:53.946Z,45.35
2022-10-13T15:50:03.802Z,48.33
2022-10-13T15:53:08.418Z,54.00
2022-10-13T15:56:12.218Z,45.25
2022-10-13T15:59:15.882Z,42.33
2022-10-13T16:02:19.660Z,39.70
2022-10-13T16:05:23.369Z,40.93
2022-10-13T16:08:26.967Z,38.88
2022-10-13T16:11:30.469Z,37.95
2022-10-13T16:14:33.609Z,39.17
2022-10-13T16:17:37.097Z,37.45
2022-10-13T16:20:45.735Z,34.70
2022-10-13T16:23:49.688Z,33.90
2022-10-13T16:26:53.473Z,34.00
2022-10-13T16:29:59.954Z,29.35
2022-10-13T16:33:04.699Z,29.63
2022-10-13T16:36:11.382Z,26.20
2022-10-13T16:39:16.238Z,31.92
2022-10-13T16:42:20.322Z,27.80
2022-10-13T16:45:41.218Z,29.75
2022-10-13T16:48:48.640Z,35.85
2022-10-13T16:51:51.745Z,29.13
2022-10-13T16:54:56.042Z,27.77
2022-10-13T16:57:59.539Z,34.03
2022-10-13T17:01:11.536Z,31.27
2022-10-13T17:04:17.306Z,32.80
2022-10-13T17:07:24.280Z,37.30
2022-10-13T17:10:28.435Z,36.80
2022-10-13T17:13:37.661Z,34.03
2022-10-13T17:16:41.150Z,34.63
2022-10-13T17:19:44.725Z,26.23
2022-10-13T17:22:48.071Z,27.90
2022-10-13T17:25:54.755Z,28.38
2022-10-13T17:28:58.110Z,20.50
2022-10-13T17:32:02.070Z,30.10
2022-10-13T17:35:06.735Z,22.83
2022-10-13T17:38:10.434Z,17.87
2022-10-13T17:41:14.456Z,18.67
2022-10-13T17:44:24.837Z,23.00
2022-10-13T17:47:27.792Z,19.10
2022-10-13T17:50:31.447Z,16.33
2022-10-13T17:53:35.290Z,16.47
2022-10-13T17:56:41.246Z,16.38
2022-10-13T17:59:46.083Z,15.55
2022-10-13T18:02:50.092Z,14.75
2022-10-13T18:05:54.303Z,14.25
2022-10-13T18:08:58.390Z,16.63
2022-10-13T18:12:02.050Z,14.82
2022-10-13T18:15:05.792Z,16.20
2022-10-13T18:18:11.873Z,17.20
2022-10-13T18:21:18.337Z,13.48
2022-10-13T18:24:28.095Z,11.77
2022-10-13T18:27:32.305Z,15.25
2022-10-13T18:30:36.520Z,15.65
2022-10-13T18:33:41.236Z,14.48
2022-10-13T18:36:51.334Z,17.80
2022-10-13T18:39:55.245Z,17.27
2022-10-13T18:42:58.877Z,17.98
2022-10-13T18:46:03.043Z,16.45
2022-10-13T18:49:07.923Z,13.60
2022-10-13T18:52:14.851Z,19.10
2022-10-13T18:55:18.434Z,20.93
2022-10-13T18:58:32.888Z,21.13
2022-10-13T19:01:38.519Z,16.97
2022-10-13T19:04:42.693Z,15.90
2022-10-13T19:07:46.314Z,17.45
2022-10-13T19:10:49.642Z,15.77
2022-10-13T19:13:53.262Z,13.90
2022-10-13T19:17:00.986Z,15.23
2022-10-13T19:20:06.299Z,11.70
2022-10-13T19:23:16.718Z,11.15
2022-10-13T19:26:26.584Z,10.93
2022-10-13T19:29:31.522Z,12.63
2022-10-13T19:32:35.435Z,11.47
2022-10-13T19:35:48.281Z,12.03
2022-10-13T19:38:52.864Z,12.27
2022-10-13T19:41:58.307Z,9.07
2022-10-13T19:45:04.032Z,10.15
2022-10-13T19:48:07.632Z,9.90
2022-10-13T19:51:12.251Z,11.23
2022-10-13T19:54:15.691Z,9.40
2022-10-13T19:57:20.147Z,9.40
2022-10-13T20:00:24.423Z,9.13
2022-10-13T20:03:27.537Z,15.30
2022-10-13T20:06:30.916Z,12.03
2022-10-13T20:09:34.334Z,12.10
2022-10-13T20:12:37.841Z,8.32
2022-10-13T20:15:42.824Z,7.70
2022-10-13T20:18:52.499Z,6.60
2022-10-13T20:21:56.832Z,8.40
2022-10-13T20:25:00.912Z,7.63
2022-10-13T20:28:04.455Z,6.78
2022-10-13T20:31:09.027Z,9.95
2022-10-13T20:34:12.852Z,7.20
2022-10-13T20:37:16.162Z,8.50
2022-10-13T20:40:19.584Z,10.32
2022-10-13T20:43:25.751Z,8.70
2022-10-13T20:46:30.025Z,8.40
2022-10-13T20:49:33.473Z,8.57
2022-10-13T20:52:38.122Z,7.83
2022-10-13T20:55:42.054Z,6.80
2022-10-13T20:58:45.378Z,8.02
2022-10-13T21:01:48.618Z,5.28
2022-10-13T21:04:51.569Z,6.40
2022-10-13T21:07:55.514Z,8.33
2022-10-13T21:11:05.122Z,7.10
2022-10-13T21:14:10.143Z,7.47
2022-10-13T21:17:13.427Z,7.93
2022-10-13T21:20:16.402Z,6.77
2022-10-13T21:23:19.946Z,5.90
2022-10-13T21:26:24.985Z,6.13
2022-10-13T21:29:29.190Z,7.72
2022-10-13T21:32:32.153Z,8.88
2022-10-13T21:35:39.284Z,8.60
2022-10-13T21:38:43.693Z,7.37
2022-10-13T21:41:47.430Z,5.47
2022-10-13T21:44:50.911Z,10.82
2022-10-13T21:47:55.244Z,7.70
2022-10-13T21:50:58.132Z,6.17
2022-10-13T21:54:04.983Z,7.00
2022-10-13T21:57:08.041Z,6.35
2022-10-13T22:00:11.688Z,9.80
2022-10-13T22:03:15.366Z,8.43
2022-10-13T22:06:19.774Z,7.37
2022-10-13T22:09:22.865Z,7.30
2022-10-13T22:12:28.549Z,7.10
2022-10-13T22:15:35.267Z,7.38
2022-10-13T22:18:38.731Z,10.43
2022-10-13T22:21:44.612Z,9.77
2022-10-13T22:24:49.657Z,8.67
2022-10-13T22:27:53.381Z,8.13
2022-10-13T22:30:58.017Z,8.05
2022-10-13T22:34:03.066Z,6.97
2022-10-13T22:37:07.142Z,7.20
2022-10-13T22:40:11.326Z,9.63
2022-10-13T22:43:14.232Z,12.02
2022-10-13T22:46:19.035Z,9.68
2022-10-13T22:49:22.759Z,9.43
2022-10-13T22:52:26.578Z,19.20
2022-10-13T22:55:29.803Z,14.53
2022-10-13T22:58:33.770Z,13.32
2022-10-13T23:01:38.083Z,11.25
2022-10-13T23:04:41.647Z,13.48
2022-10-13T23:07:44.719Z,11.07
2022-10-13T23:10:47.750Z,11.30
2022-10-13T23:13:51.056Z,16.60
2022-10-13T23:16:54.741Z,12.40
2022-10-13T23:19:57.741Z,15.00
2022-10-13T23:23:00.784Z,11.23
2022-10-13T23:26:12.490Z,11.60
2022-10-13T23:29:16.846Z,12.73
2022-10-13T23:32:19.790Z,10.18
2022-10-13T23:35:23.254Z,8.13
2022-10-13T23:38:27.670Z,9.37
2022-10-13T23:41:31.954Z,10.00
2022-10-13T23:44:35.009Z,10.32
2022-10-13T23:47:38.276Z,7.18
2022-10-13T23:50:41.166Z,9.20
2022-10-13T23:53:44.509Z,7.77
2022-10-13T23:56:48.190Z,9.73
2022-10-13T23:59:51.122Z,8.30
